createdAt,value
2018-04-29T00:00:05.709Z,68.8
2018-04-29T00:00:55.498Z,68.8
2018-04-29T00:01:45.531Z,68.7
2018-04-29T00:02:35.877Z,68.8
2018-04-29T00:03:25.965Z,68.7
2018-04-29T00:04:16.036Z,68.7
2018-04-29T00:05:05.801Z,68.7
2018-04-29T00:05:56.132Z,68.7
2018-04-29T00:06:45.667Z,68.7
2018-04-29T00:07:36.311Z,68.7
2018-04-29T00:08:26.064Z,68.7
2018-04-29T00:09:15.862Z,68.6
2018-04-29T00:10:06.486Z,68.6
2018-04-29T00:10:56.052Z,68.6
2018-04-29T00:11:46.568Z,68.6
2018-04-29T00:12:36.109Z,68.6
2018-04-29T00:13:26.455Z,68.6
2018-04-29T00:14:16.604Z,68.6
2018-04-29T00:15:06.849Z,68.6
2018-04-29T00:15:56.051Z,68.6
2018-04-29T00:16:46.697Z,68.6
2018-04-29T00:17:36.486Z,68.6
2018-04-29T00:18:26.833Z,68.6
2018-04-29T00:19:16.906Z,68.6
2018-04-29T00:20:06.673Z,68.6
2018-04-29T00:20:57.383Z,68.6
2018-04-29T00:21:47.346Z,68.5
2018-04-29T00:22:36.861Z,68.5
2018-04-29T00:23:26.123Z,68.5
2018-04-29T00:24:17.381Z,68.5
2018-04-29T00:25:07.086Z,68.5
2018-04-29T00:25:57.415Z,68.5
2018-04-29T00:26:47.740Z,68.5
2018-04-29T00:27:36.996Z,68.5
2018-04-29T00:28:27.039Z,68.4
2018-04-29T00:29:17.650Z,68.4
2018-04-29T00:30:07.740Z,68.4
2018-04-29T00:30:58.069Z,68.4
2018-04-29T00:31:48.155Z,68.4
2018-04-29T00:32:37.949Z,68.4
2018-04-29T00:33:27.993Z,68.4
2018-04-29T00:34:18.054Z,68.4
2018-04-29T00:35:07.834Z,68.4
2018-04-29T00:35:58.505Z,68.4
2018-04-29T00:36:47.975Z,68.4
2018-04-29T00:37:38.040Z,68.4
2018-04-29T00:38:28.104Z,68.4
2018-04-29T00:39:18.704Z,68.3
2018-04-29T00:40:07.947Z,68.3
2018-04-29T00:40:58.292Z,68.3
2018-04-29T00:41:48.635Z,68.3
2018-04-29T00:42:38.438Z,68.3
2018-04-29T00:43:28.783Z,68.3
2018-04-29T00:44:19.182Z,68.3
2018-04-29T00:45:09.178Z,68.3
2018-04-29T00:45:58.681Z,68.3
2018-04-29T00:46:49.286Z,68.3
2018-04-29T00:47:39.117Z,68.3
2018-04-29T00:48:29.424Z,68.3
2018-04-29T00:49:19.488Z,68.3
2018-04-29T00:50:08.476Z,68.3
2018-04-29T00:50:59.679Z,68.3
2018-04-29T00:51:49.404Z,68.2
2018-04-29T00:52:39.178Z,68.2
2018-04-29T00:53:29.774Z,68.2
2018-04-29T00:54:19.907Z,68.2
2018-04-29T00:55:09.938Z,68.2
2018-04-29T00:55:59.440Z,68.2
2018-04-29T00:56:49.790Z,68.2
2018-04-29T00:57:40.130Z,68.1
2018-04-29T00:58:29.928Z,68.2
2018-04-29T00:59:19.985Z,68.1
2018-04-29T01:00:10.035Z,68.1
2018-04-29T01:00:59.532Z,68.1
2018-04-29T01:01:50.240Z,68.1
2018-04-29T01:02:40.275Z,68.1
2018-04-29T01:03:30.580Z,68.1
2018-04-29T01:04:20.423Z,68.1
2018-04-29T01:05:10.452Z,68.1
2018-04-29T01:06:01.244Z,68.1
2018-04-29T01:06:50.348Z,68.1
2018-04-29T01:07:40.369Z,68.1
2018-04-29T01:08:31.055Z,68.1
2018-04-29T01:09:20.748Z,68.1
2018-04-29T01:10:11.159Z,68.1
2018-04-29T01:11:01.147Z,68
2018-04-29T01:11:50.683Z,68
2018-04-29T01:12:41.011Z,68
2018-04-29T01:13:30.820Z,68
2018-04-29T01:14:21.434Z,68
2018-04-29T01:15:11.224Z,68
2018-04-29T01:16:01.256Z,68
2018-04-29T01:16:51.136Z,67.9
2018-04-29T01:17:41.665Z,67.9
2018-04-29T01:18:31.492Z,67.9
2018-04-29T01:19:21.580Z,67.9
2018-04-29T01:20:11.609Z,67.9
2018-04-29T01:21:01.660Z,67.9
2018-04-29T01:21:51.996Z,67.9
2018-04-29T01:22:42.061Z,67.9
2018-04-29T01:23:31.861Z,67.9
2018-04-29T01:24:21.364Z,67.9
2018-04-29T01:25:12.016Z,67.9
2018-04-29T01:26:02.046Z,67.9
2018-04-29T01:26:52.109Z,67.9
2018-04-29T01:27:42.457Z,67.8
2018-04-29T01:28:32.544Z,67.9
2018-04-29T01:29:22.057Z,67.9
2018-04-29T01:30:12.355Z,67.8
2018-04-29T01:31:01.596Z,67.8
2018-04-29T01:31:52.511Z,67.8
2018-04-29T01:32:42.845Z,67.8
2018-04-29T01:33:32.941Z,67.8
2018-04-29T01:34:22.951Z,67.8
2018-04-29T01:35:12.746Z,67.8
2018-04-29T01:36:02.848Z,67.8
2018-04-29T01:36:53.154Z,67.8
2018-04-29T01:37:43.241Z,67.8
2018-04-29T01:38:33.012Z,67.8
2018-04-29T01:39:23.379Z,67.8
2018-04-29T01:40:13.197Z,67.8
2018-04-29T01:41:03.263Z,67.8
2018-04-29T01:41:53.316Z,67.8
2018-04-29T01:42:42.501Z,67.7
2018-04-29T01:43:32.534Z,67.7
2018-04-29T01:44:23.205Z,67.7
2018-04-29T01:45:13.533Z,67.7
2018-04-29T01:46:03.595Z,67.7
2018-04-29T01:46:53.385Z,67.7
2018-04-29T01:47:43.729Z,67.7
2018-04-29T01:48:34.075Z,67.6
2018-04-29T01:49:24.141Z,67.6
2018-04-29T01:50:14.204Z,67.6
2018-04-29T01:51:04.287Z,67.6
2018-04-29T01:51:54.060Z,67.6
2018-04-29T01:52:44.370Z,67.6
2018-04-29T01:53:33.632Z,67.6
2018-04-29T01:54:24.505Z,67.6
2018-04-29T01:55:14.336Z,67.6
2018-04-29T01:56:04.393Z,67.6
2018-04-29T01:56:54.175Z,67.6
2018-04-29T01:57:44.532Z,67.6
2018-04-29T01:58:33.746Z,67.6
2018-04-29T01:59:23.797Z,67.6
2018-04-29T02:00:14.722Z,67.6
2018-04-29T02:01:05.049Z,67.5
2018-04-29T02:01:55.113Z,67.5
2018-04-29T02:02:44.913Z,67.5
2018-04-29T02:03:34.762Z,67.5
2018-04-29T02:04:24.535Z,67.5
2018-04-29T02:05:14.891Z,67.5
2018-04-29T02:06:04.947Z,67.5
2018-04-29T02:06:54.730Z,67.4
2018-04-29T02:07:45.056Z,67.4
2018-04-29T02:08:34.865Z,67.4
2018-04-29T02:09:25.213Z,67.4
2018-04-29T02:10:14.964Z,67.4
2018-04-29T02:11:05.558Z,67.4
2018-04-29T02:11:55.621Z,67.4
2018-04-29T02:12:45.695Z,67.4
2018-04-29T02:13:35.212Z,67.4
2018-04-29T02:14:25.794Z,67.4
2018-04-29T02:15:15.939Z,67.4
2018-04-29T02:16:06.212Z,67.4
2018-04-29T02:16:56.267Z,67.4
2018-04-29T02:17:46.086Z,67.4
2018-04-29T02:18:36.132Z,67.4
2018-04-29T02:19:26.468Z,67.4
2018-04-29T02:20:16.271Z,67.3
2018-04-29T02:21:06.044Z,67.3
2018-04-29T02:21:56.650Z,67.3
2018-04-29T02:22:45.903Z,67.3
2018-04-29T02:23:36.205Z,67.3
2018-04-29T02:24:26.855Z,67.3
2018-04-29T02:25:16.915Z,67.3
2018-04-29T02:26:06.422Z,67.3
2018-04-29T02:26:56.839Z,67.3
2018-04-29T02:27:46.582Z,67.3
2018-04-29T02:28:36.917Z,67.3
2018-04-29T02:29:26.996Z,67.3
2018-04-29T02:30:17.078Z,67.3
2018-04-29T02:31:07.401Z,67.3
2018-04-29T02:31:57.206Z,67.2
2018-04-29T02:32:47.539Z,67.2
2018-04-29T02:33:37.046Z,67.2
2018-04-29T02:34:26.553Z,67.2
2018-04-29T02:35:17.696Z,67.2
2018-04-29T02:36:07.789Z,67.2
2018-04-29T02:36:57.863Z,67.2
2018-04-29T02:37:47.902Z,67.2
2018-04-29T02:38:37.782Z,67.2
2018-04-29T02:39:27.816Z,67.1
2018-04-29T02:40:17.824Z,67.1
2018-04-29T02:41:07.907Z,67.1
2018-04-29T02:41:57.966Z,67.1
2018-04-29T02:42:48.010Z,67.1
2018-04-29T02:43:38.100Z,67.1
2018-04-29T02:44:28.457Z,67.1
2018-04-29T02:45:18.217Z,67.1
2018-04-29T02:46:08.072Z,67.1
2018-04-29T02:46:58.347Z,67.1
2018-04-29T02:47:48.695Z,67.1
2018-04-29T02:48:38.743Z,67.1
2018-04-29T02:49:28.542Z,67.1
2018-04-29T02:50:18.902Z,67.1
2018-04-29T02:51:08.962Z,67.1
2018-04-29T02:51:58.992Z,67.1
2018-04-29T02:52:48.814Z,67
2018-04-29T02:53:38.892Z,67
2018-04-29T02:54:28.652Z,67
2018-04-29T02:55:19.054Z,67
2018-04-29T02:56:09.078Z,67
2018-04-29T02:56:59.450Z,67
2018-04-29T02:57:49.560Z,66.9
2018-04-29T02:58:39.545Z,66.9
2018-04-29T02:59:29.032Z,66.9
2018-04-29T03:00:19.095Z,66.9
2018-04-29T03:01:08.901Z,66.9
2018-04-29T03:01:59.829Z,66.9
2018-04-29T03:02:49.893Z,66.9
2018-04-29T03:03:39.956Z,66.9
2018-04-29T03:04:29.715Z,66.9
2018-04-29T03:05:19.766Z,66.9
2018-04-29T03:06:09.280Z,66.9
2018-04-29T03:07:00.220Z,66.9
2018-04-29T03:07:50.237Z,66.9
2018-04-29T03:08:40.013Z,66.9
2018-04-29T03:09:29.811Z,66.8
2018-04-29T03:10:19.863Z,66.9
2018-04-29T03:11:10.245Z,66.8
2018-04-29T03:12:00.012Z,66.8
2018-04-29T03:12:50.079Z,66.8
2018-04-29T03:13:40.392Z,66.8
2018-04-29T03:14:30.801Z,66.8
2018-04-29T03:15:20.892Z,66.8
2018-04-29T03:16:10.598Z,66.8
2018-04-29T03:17:00.379Z,66.8
2018-04-29T03:17:50.753Z,66.8
2018-04-29T03:18:41.110Z,66.8
2018-04-29T03:19:30.587Z,66.8
2018-04-29T03:20:20.658Z,66.8
2018-04-29T03:21:10.684Z,66.8
2018-04-29T03:22:00.758Z,66.8
2018-04-29T03:22:51.109Z,66.8
2018-04-29T03:23:41.440Z,66.7
2018-04-29T03:24:31.513Z,66.7
2018-04-29T03:25:21.304Z,66.7
2018-04-29T03:26:11.654Z,66.7
2018-04-29T03:27:01.123Z,66.7
2018-04-29T03:27:51.483Z,66.7
2018-04-29T03:28:41.837Z,66.7
2018-04-29T03:29:31.677Z,66.6
2018-04-29T03:30:22.027Z,66.6
2018-04-29T03:31:11.767Z,66.6
2018-04-29T03:32:01.565Z,66.6
2018-04-29T03:32:51.610Z,66.6
2018-04-29T03:33:42.217Z,66.6
2018-04-29T03:34:32.309Z,66.6
2018-04-29T03:35:22.129Z,66.6
2018-04-29T03:36:11.941Z,66.6
2018-04-29T03:37:02.085Z,66.6
2018-04-29T03:37:52.084Z,66.6
2018-04-29T03:38:41.841Z,66.6
2018-04-29T03:39:32.189Z,66.6
2018-04-29T03:40:22.252Z,66.6
2018-04-29T03:41:11.748Z,66.6
2018-04-29T03:42:02.399Z,66.6
2018-04-29T03:42:52.965Z,66.5
2018-04-29T03:43:43.041Z,66.5
2018-04-29T03:44:33.065Z,66.5
2018-04-29T03:45:22.559Z,66.5
2018-04-29T03:46:13.213Z,66.5
2018-04-29T03:47:02.988Z,66.5
2018-04-29T03:47:53.399Z,66.5
2018-04-29T03:48:43.104Z,66.5
2018-04-29T03:49:33.198Z,66.4
2018-04-29T03:50:23.257Z,66.4
2018-04-29T03:51:13.320Z,66.4
2018-04-29T03:52:03.656Z,66.4
2018-04-29T03:52:53.477Z,66.4
2018-04-29T03:53:43.805Z,66.4
2018-04-29T03:54:33.561Z,66.4
2018-04-29T03:55:23.923Z,66.4
2018-04-29T03:56:13.405Z,66.4
2018-04-29T03:57:03.573Z,66.4
2018-04-29T03:57:53.823Z,66.4
2018-04-29T03:58:44.250Z,66.4
2018-04-29T03:59:33.977Z,66.4
2018-04-29T04:00:23.721Z,66.3
2018-04-29T04:01:14.074Z,66.3
2018-04-29T04:02:04.160Z,66.3
2018-04-29T04:02:54.592Z,66.3
2018-04-29T04:03:44.016Z,66.3
2018-04-29T04:04:34.659Z,66.3
2018-04-29T04:05:23.870Z,66.3
2018-04-29T04:06:14.722Z,66.3
2018-04-29T04:07:04.832Z,66.3
2018-04-29T04:07:54.027Z,66.3
2018-04-29T04:08:44.657Z,66.3
2018-04-29T04:09:34.801Z,66.3
2018-04-29T04:10:25.062Z,66.3
2018-04-29T04:11:15.148Z,66.3
2018-04-29T04:12:05.184Z,66.3
2018-04-29T04:12:54.981Z,66.2
2018-04-29T04:13:45.341Z,66.2
2018-04-29T04:14:35.362Z,66.2
2018-04-29T04:15:25.444Z,66.2
2018-04-29T04:16:15.245Z,66.2
2018-04-29T04:17:05.033Z,66.2
2018-04-29T04:17:54.807Z,66.2
2018-04-29T04:18:45.448Z,66.2
2018-04-29T04:19:34.683Z,66.1
2018-04-29T04:20:25.852Z,66.1
2018-04-29T04:21:15.369Z,66.1
2018-04-29T04:22:05.712Z,66.1
2018-04-29T04:22:56.073Z,66.1
2018-04-29T04:23:46.655Z,66.1
2018-04-29T04:24:36.211Z,66.1
2018-04-29T04:25:26.235Z,66.1
2018-04-29T04:26:16.282Z,66.1
2018-04-29T04:27:05.537Z,66.1
2018-04-29T04:27:56.443Z,66.1
2018-04-29T04:28:46.514Z,66.1
2018-04-29T04:29:36.572Z,66.1
2018-04-29T04:30:26.069Z,66.1
2018-04-29T04:31:16.745Z,66.1
2018-04-29T04:32:06.754Z,66
2018-04-29T04:32:56.823Z,66
2018-04-29T04:33:46.351Z,66
2018-04-29T04:34:36.949Z,66
2018-04-29T04:35:26.731Z,66
2018-04-29T04:36:17.064Z,66
2018-04-29T04:37:06.294Z,66
2018-04-29T04:37:57.222Z,66
2018-04-29T04:38:46.993Z,66
2018-04-29T04:39:37.345Z,65.9
2018-04-29T04:40:26.569Z,65.9
2018-04-29T04:41:16.909Z,65.9
2018-04-29T04:42:07.511Z,65.9
2018-04-29T04:42:57.353Z,65.9
2018-04-29T04:43:47.361Z,65.9
2018-04-29T04:44:37.161Z,65.9
2018-04-29T04:45:27.814Z,65.9
2018-04-29T04:46:17.890Z,65.9
2018-04-29T04:47:07.923Z,65.9
2018-04-29T04:47:57.435Z,65.9
2018-04-29T04:49:23.548Z,65.9
2018-04-29T04:49:38.140Z,65.9
2018-04-29T04:50:27.666Z,65.9
2018-04-29T04:51:17.404Z,65.8
2018-04-29T04:52:08.297Z,65.8
2018-04-29T04:52:57.843Z,65.8
2018-04-29T04:53:48.429Z,65.8
2018-04-29T04:54:38.538Z,65.8
2018-04-29T04:55:28.568Z,65.8
2018-04-29T04:56:18.355Z,65.8
2018-04-29T04:57:08.210Z,65.8
2018-04-29T04:57:58.837Z,65.8
2018-04-29T04:58:48.860Z,65.8
2018-04-29T04:59:38.929Z,65.8
2018-04-29T05:00:28.402Z,65.8
2018-04-29T05:01:18.505Z,65.8
2018-04-29T05:02:08.551Z,65.8
2018-04-29T05:02:58.885Z,65.7
2018-04-29T05:03:49.234Z,65.7
2018-04-29T05:04:39.333Z,65.7
2018-04-29T05:05:29.342Z,65.7
2018-04-29T05:06:19.146Z,65.7
2018-04-29T05:07:09.219Z,65.7
2018-04-29T05:07:58.981Z,65.7
2018-04-29T05:08:49.046Z,65.7
2018-04-29T05:09:39.138Z,65.6
2018-04-29T05:10:29.772Z,65.6
2018-04-29T05:11:19.322Z,65.6
2018-04-29T05:12:09.309Z,65.6
2018-04-29T05:12:59.661Z,65.6
2018-04-29T05:13:50.966Z,65.6
2018-04-29T05:14:39.520Z,65.6
2018-04-29T05:15:30.157Z,65.6
2018-04-29T05:16:20.203Z,65.6
2018-04-29T05:17:09.974Z,65.6
2018-04-29T05:17:59.754Z,65.6
2018-04-29T05:18:49.915Z,65.6
2018-04-29T05:19:40.469Z,65.6
2018-04-29T05:20:30.591Z,65.6
2018-04-29T05:21:20.571Z,65.6
2018-04-29T05:22:10.849Z,65.5
2018-04-29T05:23:00.717Z,65.6
2018-04-29T05:23:50.482Z,65.5
2018-04-29T05:24:40.547Z,65.5
2018-04-29T05:25:30.636Z,65.5
2018-04-29T05:26:20.693Z,65.5
2018-04-29T05:27:11.012Z,65.5
2018-04-29T05:28:00.519Z,65.5
2018-04-29T05:28:51.152Z,65.4
2018-04-29T05:29:40.625Z,65.4
2018-04-29T05:30:31.262Z,65.4
2018-04-29T05:31:21.360Z,65.4
2018-04-29T05:32:10.930Z,65.4
2018-04-29T05:33:01.454Z,65.4
2018-04-29T05:33:50.687Z,65.4
2018-04-29T05:34:41.412Z,65.4
2018-04-29T05:35:32.428Z,65.4
2018-04-29T05:36:21.722Z,65.4
2018-04-29T05:37:11.521Z,65.4
2018-04-29T05:38:01.592Z,65.4
2018-04-29T05:38:51.897Z,65.3
2018-04-29T05:39:40.861Z,65.3
2018-04-29T05:40:31.775Z,65.3
2018-04-29T05:41:22.116Z,65.3
2018-04-29T05:42:11.876Z,65.3
2018-04-29T05:43:02.234Z,65.3
2018-04-29T05:43:52.020Z,65.3
2018-04-29T05:44:41.822Z,65.3
2018-04-29T05:45:32.430Z,65.3
2018-04-29T05:46:22.504Z,65.3
2018-04-29T05:47:12.287Z,65.3
2018-04-29T05:48:02.378Z,65.3
2018-04-29T05:48:52.443Z,65.2
2018-04-29T05:49:42.755Z,65.2
2018-04-29T05:50:32.833Z,65.2
2018-04-29T05:51:22.905Z,65.2
2018-04-29T05:52:12.416Z,65.2
2018-04-29T05:53:02.482Z,65.1
2018-04-29T05:53:52.544Z,65.1
2018-04-29T05:54:42.909Z,65.1
2018-04-29T05:55:32.383Z,65.1
2018-04-29T05:56:22.735Z,65.1
2018-04-29T05:57:13.070Z,65.1
2018-04-29T05:58:03.437Z,65.1
2018-04-29T05:58:52.954Z,65.1
2018-04-29T05:59:43.540Z,65.1
2018-04-29T06:00:33.372Z,65.1
2018-04-29T06:01:23.142Z,65.1
2018-04-29T06:02:13.749Z,65.1
2018-04-29T06:03:03.538Z,65.1
2018-04-29T06:03:53.621Z,65.1
2018-04-29T06:04:43.948Z,65.1
2018-04-29T06:05:33.168Z,65
2018-04-29T06:06:24.600Z,64.8
2018-04-29T06:07:14.160Z,64.6
2018-04-29T06:08:04.170Z,64.6
2018-04-29T06:08:53.958Z,64.5
2018-04-29T06:09:44.319Z,64.5
2018-04-29T06:10:34.115Z,64.4
2018-04-29T06:11:24.166Z,64.4
2018-04-29T06:12:14.258Z,64.4
2018-04-29T06:13:04.592Z,64.4
2018-04-29T06:13:54.404Z,64.4
2018-04-29T06:14:44.683Z,64.4
2018-04-29T06:15:34.794Z,64.4
2018-04-29T06:16:24.303Z,64.4
2018-04-29T06:17:14.890Z,64.4
2018-04-29T06:18:04.674Z,64.4
2018-04-29T06:18:54.300Z,64.3
2018-04-29T06:19:44.859Z,64.3
2018-04-29T06:20:35.847Z,64.3
2018-04-29T06:21:25.228Z,64.3
2018-04-29T06:22:15.008Z,64.3
2018-04-29T06:23:04.507Z,64.3
2018-04-29T06:23:55.428Z,64.3
2018-04-29T06:24:45.213Z,64.3
2018-04-29T06:25:35.278Z,64.3
2018-04-29T06:26:25.358Z,64.3
2018-04-29T06:27:15.668Z,64.3
2018-04-29T06:28:05.487Z,64.3
2018-04-29T06:28:55.545Z,64.3
2018-04-29T06:29:45.888Z,64.2
2018-04-29T06:30:35.730Z,64.2
2018-04-29T06:31:25.724Z,64.2
2018-04-29T06:32:16.087Z,64.2
2018-04-29T06:33:05.573Z,64.2
2018-04-29T06:33:55.910Z,64.2
2018-04-29T06:34:46.289Z,64.2
2018-04-29T06:35:35.795Z,64.2
2018-04-29T06:36:26.122Z,64.2
2018-04-29T06:37:15.882Z,64.1
2018-04-29T06:38:05.968Z,64.1
2018-04-29T06:38:57.022Z,64.1
2018-04-29T06:39:46.649Z,64.1
2018-04-29T06:40:36.746Z,64.1
2018-04-29T06:41:26.510Z,64.1
2018-04-29T06:42:16.622Z,64.1
2018-04-29T06:43:06.892Z,64.1
2018-04-29T06:43:56.694Z,64.1
2018-04-29T06:44:47.048Z,64.1
2018-04-29T06:45:36.816Z,64.1
2018-04-29T06:46:26.889Z,64.1
2018-04-29T06:47:17.294Z,64.1
2018-04-29T06:48:06.854Z,64.1
2018-04-29T06:48:57.377Z,64.1
2018-04-29T06:49:47.444Z,64.1
2018-04-29T06:50:37.518Z,64
2018-04-29T06:51:27.119Z,64.1
2018-04-29T06:52:17.093Z,64
2018-04-29T06:53:07.415Z,64
2018-04-29T06:53:57.780Z,64
2018-04-29T06:54:47.274Z,64
2018-04-29T06:55:37.890Z,63.9
2018-04-29T06:56:27.403Z,63.9
2018-04-29T06:57:18.055Z,63.9
2018-04-29T06:58:08.105Z,63.9
2018-04-29T06:58:57.915Z,63.9
2018-04-29T06:59:47.980Z,63.9
2018-04-29T07:00:38.037Z,63.9
2018-04-29T07:01:28.089Z,63.9
2018-04-29T07:02:18.418Z,63.9
2018-04-29T07:03:07.664Z,63.9
2018-04-29T07:03:57.784Z,63.9
2018-04-29T07:04:48.370Z,63.9
2018-04-29T07:05:38.433Z,63.9
2018-04-29T07:06:28.514Z,63.9
2018-04-29T07:07:18.084Z,63.9
2018-04-29T07:08:09.097Z,63.9
2018-04-29T07:08:57.907Z,63.9
2018-04-29T07:09:48.726Z,63.8
2018-04-29T07:10:39.104Z,63.8
2018-04-29T07:11:28.553Z,63.8
2018-04-29T07:12:18.918Z,63.8
2018-04-29T07:13:09.274Z,63.8
2018-04-29T07:13:59.350Z,63.8
2018-04-29T07:14:48.979Z,63.8
2018-04-29T07:15:39.458Z,63.8
2018-04-29T07:16:29.277Z,63.8
2018-04-29T07:17:19.359Z,63.8
2018-04-29T07:18:09.142Z,63.8
2018-04-29T07:18:58.908Z,63.8
2018-04-29T07:19:49.520Z,63.8
2018-04-29T07:20:39.857Z,63.8
2018-04-29T07:21:29.460Z,63.8
2018-04-29T07:22:19.438Z,63.7
2018-04-29T07:23:09.793Z,63.8
2018-04-29T07:24:00.171Z,63.8
2018-04-29T07:24:50.246Z,63.7
2018-04-29T07:25:39.996Z,63.7
2018-04-29T07:26:30.068Z,63.7
2018-04-29T07:27:20.115Z,63.7
2018-04-29T07:28:10.470Z,63.7
2018-04-29T07:28:59.980Z,63.6
2018-04-29T07:29:50.117Z,63.7
2018-04-29T07:30:40.104Z,63.7
2018-04-29T07:31:30.747Z,63.6
2018-04-29T07:32:20.835Z,63.6
2018-04-29T07:33:10.303Z,63.6
2018-04-29T07:34:00.471Z,63.6
2018-04-29T07:34:50.989Z,63.6
2018-04-29T07:35:41.063Z,63.6
2018-04-29T07:36:30.643Z,63.6
2018-04-29T07:37:21.181Z,63.6
2018-04-29T07:38:11.009Z,63.6
2018-04-29T07:39:01.055Z,63.6
2018-04-29T07:39:50.359Z,63.6
2018-04-29T07:40:41.494Z,63.6
2018-04-29T07:41:31.559Z,63.6
2018-04-29T07:42:20.757Z,63.6
2018-04-29T07:43:11.663Z,63.6
2018-04-29T07:44:01.450Z,63.5
2018-04-29T07:44:51.500Z,63.5
2018-04-29T07:45:41.354Z,63.5
2018-04-29T07:46:32.511Z,63.5
2018-04-29T07:47:21.174Z,63.5
2018-04-29T07:48:11.854Z,63.5
2018-04-29T07:49:02.134Z,63.5
2018-04-29T07:49:52.262Z,63.5
2018-04-29T07:50:42.331Z,63.5
2018-04-29T07:51:32.311Z,63.4
2018-04-29T07:52:22.855Z,63.4
2018-04-29T07:53:12.258Z,63.4
2018-04-29T07:54:02.290Z,63.4
2018-04-29T07:54:52.423Z,63.4
2018-04-29T07:55:42.401Z,63.4
2018-04-29T07:56:32.473Z,63.4
2018-04-29T07:57:22.768Z,63.4
2018-04-29T07:58:12.828Z,63.4
2018-04-29T07:59:02.354Z,63.4
2018-04-29T07:59:52.703Z,63.4
2018-04-29T08:00:43.281Z,63.4
2018-04-29T08:01:33.215Z,63.4
2018-04-29T08:02:23.172Z,63.4
2018-04-29T08:03:12.696Z,63.4
2018-04-29T08:04:02.208Z,63.3
2018-04-29T08:04:53.115Z,63.3
2018-04-29T08:05:43.172Z,63.3
2018-04-29T08:06:32.935Z,63.3
2018-04-29T08:07:23.013Z,63.3
2018-04-29T08:08:13.663Z,63.3
2018-04-29T08:09:03.683Z,63.3
2018-04-29T08:09:53.885Z,63.3
2018-04-29T08:10:43.404Z,63.3
2018-04-29T08:11:33.898Z,63.4
2018-04-29T08:12:23.981Z,63.4
2018-04-29T08:13:13.764Z,63.4
2018-04-29T08:14:03.888Z,63.5
2018-04-29T08:14:53.964Z,63.6
2018-04-29T08:15:44.115Z,63.6
2018-04-29T08:16:33.758Z,63.7
2018-04-29T08:17:23.427Z,63.7
2018-04-29T08:18:13.856Z,63.8
2018-04-29T08:19:04.508Z,63.8
2018-04-29T08:19:54.254Z,63.9
2018-04-29T08:20:44.417Z,64
2018-04-29T08:21:33.900Z,64
2018-04-29T08:22:24.472Z,64.1
2018-04-29T08:23:14.316Z,64.1
2018-04-29T08:24:04.403Z,64.2
2018-04-29T08:24:53.906Z,64.3
2018-04-29T08:25:44.453Z,64.3
2018-04-29T08:26:34.817Z,64.4
2018-04-29T08:27:24.874Z,64.5
2018-04-29T08:28:15.204Z,64.6
2018-04-29T08:29:04.996Z,64.6
2018-04-29T08:29:55.346Z,64.8
2018-04-29T08:30:44.572Z,64.8
2018-04-29T08:31:35.481Z,64.9
2018-04-29T08:32:25.285Z,64.9
2018-04-29T08:33:15.605Z,65
2018-04-29T08:34:05.396Z,65.1
2018-04-29T08:34:55.723Z,65.1
2018-04-29T08:35:45.249Z,65.2
2018-04-29T08:36:35.390Z,65.3
2018-04-29T08:37:25.975Z,65.3
2018-04-29T08:38:16.035Z,65.4
2018-04-29T08:39:05.806Z,65.5
2018-04-29T08:39:55.857Z,65.6
2018-04-29T08:40:45.925Z,65.6
2018-04-29T08:41:36.284Z,65.7
2018-04-29T08:42:25.515Z,65.8
2018-04-29T08:43:16.560Z,65.8
2018-04-29T08:44:06.181Z,65.9
2018-04-29T08:44:56.242Z,66
2018-04-29T08:45:46.319Z,66.1
2018-04-29T08:46:36.737Z,66.2
2018-04-29T08:47:26.440Z,66.3
2018-04-29T08:48:16.781Z,66.4
2018-04-29T08:49:06.586Z,66.4
2018-04-29T08:49:56.937Z,66.5
2018-04-29T08:50:46.974Z,66.6
2018-04-29T08:51:37.067Z,66.6
2018-04-29T08:52:27.133Z,66.7
2018-04-29T08:53:16.899Z,66.8
2018-04-29T08:54:06.973Z,66.8
2018-04-29T08:54:58.109Z,66.9
2018-04-29T08:55:47.101Z,67
2018-04-29T08:56:37.176Z,67.1
2018-04-29T08:57:27.263Z,67.2
2018-04-29T08:58:17.119Z,67.3
2018-04-29T08:59:07.351Z,67.3
2018-04-29T08:59:57.703Z,67.3
2018-04-29T09:00:47.479Z,67.4
2018-04-29T09:01:38.069Z,67.5
2018-04-29T09:02:27.337Z,67.6
2018-04-29T09:03:17.436Z,67.8
2018-04-29T09:04:08.054Z,67.8
2018-04-29T09:04:57.587Z,67.9
2018-04-29T09:05:47.931Z,67.9
2018-04-29T09:06:37.996Z,68
2018-04-29T09:07:28.322Z,68.1
2018-04-29T09:08:18.112Z,68.1
2018-04-29T09:09:08.460Z,68.1
2018-04-29T09:09:58.222Z,68.3
2018-04-29T09:10:48.316Z,68.3
2018-04-29T09:11:38.365Z,68.4
2018-04-29T09:12:28.729Z,68.4
2018-04-29T09:13:18.508Z,68.5
2018-04-29T09:14:08.595Z,68.6
2018-04-29T09:14:58.640Z,68.7
2018-04-29T09:15:48.434Z,68.8
2018-04-29T09:16:38.794Z,68.8
2018-04-29T09:17:29.133Z,68.9
2018-04-29T09:18:19.202Z,68.9
2018-04-29T09:19:09.245Z,69
2018-04-29T09:19:59.326Z,69.1
2018-04-29T09:20:49.126Z,69.2
2018-04-29T09:21:39.153Z,69.3
2018-04-29T09:22:29.250Z,69.4
2018-04-29T09:23:19.097Z,69.4
2018-04-29T09:24:09.442Z,69.5
2018-04-29T09:24:59.693Z,69.6
2018-04-29T09:25:49.297Z,69.6
2018-04-29T09:26:39.848Z,69.7
2018-04-29T09:27:29.931Z,69.8
2018-04-29T09:28:19.769Z,69.9
2018-04-29T09:29:09.472Z,69.9
2018-04-29T09:30:00.101Z,70.1
2018-04-29T09:30:49.582Z,70.1
2018-04-29T09:31:40.211Z,70.1
2018-04-29T09:32:30.271Z,70.3
2018-04-29T09:33:19.794Z,70.3
2018-04-29T09:34:09.888Z,70.4
2018-04-29T09:35:00.247Z,70.4
2018-04-29T09:35:49.549Z,70.5
2018-04-29T09:36:40.365Z,70.6
2018-04-29T09:37:30.705Z,70.6
2018-04-29T09:38:20.769Z,70.8
2018-04-29T09:39:10.834Z,70.8
2018-04-29T09:40:00.348Z,70.8
2018-04-29T09:40:50.521Z,70.9
2018-04-29T09:41:40.533Z,71
2018-04-29T09:42:31.116Z,71.1
2018-04-29T09:43:21.465Z,71.1
2018-04-29T09:44:11.241Z,71.2
2018-04-29T09:45:00.745Z,71.3
2018-04-29T09:45:50.529Z,71.3
2018-04-29T09:46:41.437Z,71.4
2018-04-29T09:47:31.205Z,71.4
2018-04-29T09:48:21.542Z,71.5
2018-04-29T09:49:10.803Z,71.6
2018-04-29T09:50:01.395Z,71.6
2018-04-29T09:50:50.997Z,71.7
2018-04-29T09:51:41.844Z,71.7
2018-04-29T09:52:31.925Z,71.8
2018-04-29T09:53:21.391Z,71.9
2018-04-29T09:54:12.019Z,71.9
2018-04-29T09:55:01.802Z,72
2018-04-29T09:55:52.163Z,72.1
2018-04-29T09:56:41.949Z,72.2
2018-04-29T09:57:31.161Z,72.3
2018-04-29T09:58:21.545Z,72.3
2018-04-29T09:59:12.131Z,72.4
2018-04-29T10:00:02.214Z,72.4
2018-04-29T10:00:51.755Z,72.5
2018-04-29T10:01:41.597Z,72.6
2018-04-29T10:02:32.208Z,72.6
2018-04-29T10:03:22.512Z,72.7
2018-04-29T10:04:12.566Z,72.8
2018-04-29T10:05:02.334Z,72.9
2018-04-29T10:05:52.973Z,72.9
2018-04-29T10:06:43.022Z,73
2018-04-29T10:07:32.255Z,73.1
2018-04-29T10:08:23.126Z,73.1
2018-04-29T10:09:12.694Z,73.2
2018-04-29T10:10:03.308Z,73.3
2018-04-29T10:10:52.521Z,73.3
2018-04-29T10:11:43.421Z,73.4
2018-04-29T10:12:33.484Z,73.4
2018-04-29T10:13:23.555Z,73.5
2018-04-29T10:14:13.351Z,73.6
2018-04-29T10:15:03.143Z,73.6
2018-04-29T10:15:53.766Z,73.6
2018-04-29T10:16:43.256Z,73.7
2018-04-29T10:17:33.038Z,73.8
2018-04-29T10:18:23.715Z,73.8
2018-04-29T10:19:14.050Z,73.9
2018-04-29T10:20:04.093Z,73.9
2018-04-29T10:20:53.028Z,74.1
2018-04-29T10:21:44.216Z,74.1
2018-04-29T10:22:33.740Z,74.2
2018-04-29T10:23:24.390Z,74.3
2018-04-29T10:24:14.125Z,74.3
2018-04-29T10:25:04.199Z,74.4
2018-04-29T10:25:54.646Z,74.4
2018-04-29T10:26:44.692Z,74.5
2018-04-29T10:27:34.428Z,74.6
2018-04-29T10:28:24.175Z,74.6
2018-04-29T10:29:14.829Z,74.6
2018-04-29T10:30:04.923Z,74.7
2018-04-29T10:30:54.136Z,74.8
2018-04-29T10:31:44.732Z,74.8
2018-04-29T10:32:34.879Z,74.8
2018-04-29T10:33:24.909Z,74.9
2018-04-29T10:34:14.713Z,75
2018-04-29T10:35:04.724Z,75.1
2018-04-29T10:35:55.053Z,75.1
2018-04-29T10:36:44.837Z,75.1
2018-04-29T10:37:35.481Z,75.2
2018-04-29T10:38:24.668Z,75.3
2018-04-29T10:39:15.349Z,75.3
2018-04-29T10:40:05.394Z,75.3
2018-04-29T10:40:55.130Z,75.3
2018-04-29T10:41:45.234Z,75.4
2018-04-29T10:42:35.847Z,75.4
2018-04-29T10:43:25.967Z,75.5
2018-04-29T10:44:16.091Z,75.5
2018-04-29T10:45:05.476Z,75.6
2018-04-29T10:45:55.939Z,75.6
2018-04-29T10:46:46.167Z,75.6
2018-04-29T10:47:35.695Z,75.8
2018-04-29T10:48:26.037Z,75.8
2018-04-29T10:49:16.124Z,75.9
2018-04-29T10:50:06.530Z,75.9
2018-04-29T10:50:55.979Z,76
2018-04-29T10:51:46.024Z,76
2018-04-29T10:52:36.944Z,76.1
2018-04-29T10:53:25.319Z,76.1
2018-04-29T10:54:16.780Z,76.2
2018-04-29T10:55:06.607Z,76.3
2018-04-29T10:55:56.629Z,76.3
2018-04-29T10:56:46.623Z,76.3
2018-04-29T10:57:36.495Z,76.4
2018-04-29T10:58:26.277Z,76.4
2018-04-29T10:59:16.908Z,76.5
2018-04-29T11:00:07.342Z,76.6
2018-04-29T11:00:56.513Z,76.6
2018-04-29T11:01:47.128Z,76.7
2018-04-29T11:02:36.877Z,76.7
2018-04-29T11:03:26.510Z,76.7
2018-04-29T11:04:18.162Z,76.8
2018-04-29T11:05:07.099Z,76.8
2018-04-29T11:05:57.461Z,76.8
2018-04-29T11:06:47.542Z,76.8
2018-04-29T11:07:37.331Z,76.9
2018-04-29T11:08:27.363Z,76.9